createdAt,value
2022-08-19T00:02:09.094Z,99414.95
2022-08-19T00:06:17.105Z,99403.23
2022-08-19T00:10:28.994Z,99390.02
2022-08-19T00:14:36.980Z,99384.08
2022-08-19T00:18:44.901Z,99376.95
2022-08-19T00:22:53.077Z,99380.67
2022-08-19T00:27:25.996Z,99378.05
2022-08-19T00:31:32.268Z,99381.41
2022-08-19T00:35:40.535Z,99384.67
2022-08-19T00:39:49.264Z,99364.20
2022-08-19T00:44:07.010Z,99342.58
2022-08-19T00:48:15.403Z,99348.58
2022-08-19T00:52:26.621Z,99368.79
2022-08-19T00:56:34.712Z,99358.59
2022-08-19T01:00:42.359Z,99348.67
2022-08-19T01:04:50.338Z,99345.07
2022-08-19T01:08:58.451Z,99338.63
2022-08-19T01:13:07.074Z,99341.92
2022-08-19T01:17:15.980Z,99336.79
2022-08-19T01:21:27.279Z,99345.29
2022-08-19T01:25:44.564Z,99339.06
2022-08-19T01:29:53.579Z,99336.48
2022-08-19T01:34:02.702Z,99339.59
2022-08-19T01:38:12.573Z,99345.33
2022-08-19T01:42:20.986Z,99341.39
2022-08-19T01:46:37.985Z,99332.14
2022-08-19T01:50:45.922Z,99330.08
2022-08-19T01:54:53.878Z,99322.24
2022-08-19T01:59:05.485Z,99335.34
2022-08-19T02:03:17.220Z,99335.98
2022-08-19T02:07:26.553Z,99340.45
2022-08-19T02:11:36.788Z,99319.15
2022-08-19T02:15:44.375Z,99306.09
2022-08-19T02:19:52.422Z,99313.02
2022-08-19T02:24:00.513Z,99320.09
2022-08-19T02:28:08.976Z,99309.31
2022-08-19T02:32:17.163Z,99293.60
2022-08-19T02:36:26.062Z,99302.35
2022-08-19T02:40:35.640Z,99307.09
2022-08-19T02:44:43.583Z,99302.48
2022-08-19T02:48:52.276Z,99305.95
2022-08-19T02:53:00.033Z,99307.13
2022-08-19T02:57:09.125Z,99300.85
2022-08-19T03:01:27.024Z,99301.07
2022-08-19T03:05:46.918Z,99319.91
2022-08-19T03:10:00.122Z,99334.04
2022-08-19T03:14:09.626Z,99333.03
2022-08-19T03:18:18.653Z,99329.21
2022-08-19T03:22:27.942Z,99328.76
2022-08-19T03:26:36.499Z,99333.35
2022-08-19T03:30:46.841Z,99335.77
2022-08-19T03:34:59.627Z,99336.19
2022-08-19T03:39:09.627Z,99332.95
2022-08-19T03:43:18.929Z,99335.52
2022-08-19T03:47:26.778Z,99328.60
2022-08-19T03:51:36.886Z,99336.33
2022-08-19T03:55:45.658Z,99338.66
2022-08-19T03:59:53.756Z,99345.11
2022-08-19T04:04:03.451Z,99349.33
2022-08-19T04:08:14.048Z,99358.23
2022-08-19T04:12:22.569Z,99354.27
2022-08-19T04:16:35.306Z,99350.29
2022-08-19T04:20:48.831Z,99354.05
2022-08-19T04:24:57.198Z,99348.67
2022-08-19T04:29:10.417Z,99343.67
2022-08-19T04:33:26.525Z,99344.69
2022-08-19T04:37:36.788Z,99349.48
2022-08-19T04:42:02.632Z,99347.77
2022-08-19T04:46:12.219Z,99348.55
2022-08-19T04:50:44.757Z,99348.29
2022-08-19T04:54:52.582Z,99345.52
2022-08-19T04:59:04.304Z,99337.81
2022-08-19T05:03:12.354Z,99343.59
2022-08-19T05:07:20.026Z,99343.52
2022-08-19T05:11:29.956Z,99342.52
2022-08-19T05:15:37.933Z,99351.43
2022-08-19T05:20:04.498Z,99346.96
2022-08-19T05:24:12.762Z,99352.96
2022-08-19T05:28:21.415Z,99359.89
2022-08-19T05:32:29.869Z,99365.34
2022-08-19T05:36:41.169Z,99365.67
2022-08-19T05:40:50.636Z,99364.25
2022-08-19T05:44:58.598Z,99364.54
2022-08-19T05:49:07.690Z,99365.02
2022-08-19T05:53:17.542Z,99379.81
2022-08-19T05:57:25.599Z,99384.50
2022-08-19T06:01:33.824Z,99387.53
2022-08-19T06:05:46.225Z,99401.48
2022-08-19T06:10:01.509Z,99423.00
2022-08-19T06:14:16.452Z,99433.96
2022-08-19T06:18:26.593Z,99440.13
2022-08-19T06:22:34.847Z,99439.77
2022-08-19T06:30:57.565Z,99436.91
2022-08-19T06:35:05.804Z,99448.58
2022-08-19T06:39:15.776Z,99450.38
2022-08-19T06:43:23.868Z,99460.92
2022-08-19T06:47:37.446Z,99472.69
2022-08-19T06:51:49.044Z,99489.77
2022-08-19T06:56:01.479Z,99493.04
2022-08-19T07:00:13.197Z,99490.55
2022-08-19T07:04:27.252Z,99485.30
2022-08-19T07:08:35.177Z,99486.38
2022-08-19T07:12:43.375Z,99488.20
2022-08-19T07:16:52.889Z,99481.08
2022-08-19T07:21:09.415Z,99489.96
2022-08-19T07:25:18.893Z,99495.65
2022-08-19T07:29:28.412Z,99503.48
2022-08-19T07:33:39.630Z,99503.02
2022-08-19T07:37:48.136Z,99508.64
2022-08-19T07:41:56.916Z,99515.74
2022-08-19T07:46:04.612Z,99518.55
2022-08-19T07:50:14.511Z,99517.21
2022-08-19T07:54:28.123Z,99516.28
2022-08-19T07:58:39.289Z,99515.99
2022-08-19T08:02:47.216Z,99513.28
2022-08-19T08:07:15.085Z,99516.79
2022-08-19T08:11:24.943Z,99516.88
2022-08-19T08:15:32.785Z,99514.56
2022-08-19T08:19:43.603Z,99522.65
2022-08-19T08:23:56.001Z,99525.58
2022-08-19T08:28:04.264Z,99515.35
2022-08-19T08:32:14.916Z,99510.48
2022-08-19T08:36:26.657Z,99516.10
2022-08-19T08:40:40.632Z,99526.69
2022-08-19T08:49:14.377Z,99519.80
2022-08-19T08:53:29.785Z,99514.45
2022-08-19T08:57:46.349Z,99502.74
2022-08-19T09:01:53.979Z,99493.39
2022-08-19T09:06:05.554Z,99488.29
2022-08-19T09:10:28.671Z,99488.95
2022-08-19T09:14:51.845Z,99483.67
2022-08-19T09:19:03.639Z,99484.95
2022-08-19T09:23:14.584Z,99482.72
2022-08-19T09:27:35.626Z,99488.11
2022-08-19T09:31:51.219Z,99494.23
2022-08-19T09:36:08.891Z,99493.73
2022-08-19T09:40:19.640Z,99488.35
2022-08-19T09:44:28.115Z,99488.54
2022-08-19T09:48:37.734Z,99491.49
2022-08-19T09:52:55.399Z,99495.21
2022-08-19T09:57:07.618Z,99501.21
2022-08-19T10:01:22.904Z,99508.42
2022-08-19T10:05:48.893Z,99512.59
2022-08-19T10:09:57.538Z,99514.21
2022-08-19T10:14:07.007Z,99511.00
2022-08-19T10:18:14.796Z,99518.09
2022-08-19T10:22:23.311Z,99516.08
2022-08-19T10:26:37.377Z,99502.13
2022-08-19T10:30:46.386Z,99499.96
2022-08-19T10:34:58.771Z,99493.94
2022-08-19T10:39:10.046Z,99499.66
2022-08-19T10:43:23.731Z,99497.20
2022-08-19T10:47:32.772Z,99497.52
2022-08-19T10:52:07.710Z,99504.14
2022-08-19T10:56:35.682Z,99506.82
2022-08-19T11:00:44.206Z,99509.30
2022-08-19T11:04:52.836Z,99502.66
2022-08-19T11:09:02.743Z,99505.63
2022-08-19T11:13:10.775Z,99511.76
2022-08-19T11:17:19.226Z,99511.34
2022-08-19T11:21:28.700Z,99516.13
2022-08-19T11:25:36.882Z,99519.17
2022-08-19T11:29:45.412Z,99519.25
2022-08-19T11:33:53.977Z,99513.98
2022-08-19T11:38:07.190Z,99514.16
2022-08-19T11:42:35.909Z,99509.70
2022-08-19T11:46:46.692Z,99515.52
2022-08-19T11:50:56.738Z,99517.23
2022-08-19T11:55:04.974Z,99516.53
2022-08-19T11:59:14.931Z,99513.83
2022-08-19T12:03:23.531Z,99509.05
2022-08-19T12:07:32.824Z,99504.27
2022-08-19T12:11:41.704Z,99504.61
2022-08-19T12:15:49.979Z,99507.74
2022-08-19T12:19:59.861Z,99502.50
2022-08-19T12:24:10.824Z,99500.65
2022-08-19T12:28:18.920Z,99502.45
2022-08-19T12:32:29.098Z,99509.33
2022-08-19T12:36:37.848Z,99511.20
2022-08-19T12:40:45.790Z,99506.68
2022-08-19T12:44:54.143Z,99507.50
2022-08-19T12:49:15.334Z,99499.23
2022-08-19T12:53:31.420Z,99496.59
2022-08-19T12:57:40.111Z,99500.14
2022-08-19T13:01:48.329Z,99499.70
2022-08-19T13:05:56.473Z,99498.93
2022-08-19T13:10:05.362Z,99491.20
2022-08-19T13:14:13.511Z,99487.86
2022-08-19T13:18:21.084Z,99485.20
2022-08-19T13:22:29.112Z,99481.31
2022-08-19T13:26:36.964Z,99480.39
2022-08-19T13:31:01.415Z,99483.96
2022-08-19T13:35:13.781Z,99484.20
2022-08-19T13:39:25.194Z,99491.38
2022-08-19T13:43:33.213Z,99492.72
2022-08-19T13:47:45.894Z,99495.48
2022-08-19T13:51:55.370Z,99499.98
2022-08-19T13:56:03.060Z,99498.68
2022-08-19T14:00:15.068Z,99496.37
2022-08-19T14:04:22.940Z,99499.25
2022-08-19T14:08:45.539Z,99500.73
2022-08-19T14:12:56.847Z,99501.26
2022-08-19T14:17:04.610Z,99504.34
2022-08-19T14:21:19.660Z,99511.06
2022-08-19T14:25:29.917Z,99515.29
2022-08-19T14:29:39.237Z,99516.45
2022-08-19T14:33:48.174Z,99512.92
2022-08-19T14:37:56.789Z,99510.88
2022-08-19T14:42:11.494Z,99509.27
2022-08-19T14:46:21.750Z,99504.98
2022-08-19T14:50:31.040Z,99511.21
2022-08-19T14:54:39.111Z,99508.55
2022-08-19T14:58:47.846Z,99501.27
2022-08-19T15:02:56.960Z,99503.30
2022-08-19T15:07:05.465Z,99497.89
2022-08-19T15:11:15.658Z,99498.89
2022-08-19T15:15:24.082Z,99507.93
2022-08-19T15:19:32.475Z,99508.70
2022-08-19T15:23:40.957Z,99516.24
2022-08-19T15:27:54.330Z,99530.52
2022-08-19T15:32:07.279Z,99540.88
2022-08-19T15:36:16.727Z,99542.41
2022-08-19T15:40:29.173Z,99521.58
2022-08-19T15:44:37.607Z,99524.45
2022-08-19T15:48:55.853Z,99516.11
2022-08-19T15:53:06.915Z,99512.02
2022-08-19T15:57:32.326Z,99518.09
2022-08-19T16:01:57.368Z,99522.66
2022-08-19T16:06:22.869Z,99516.95
2022-08-19T16:10:30.843Z,99511.20
2022-08-19T16:14:39.820Z,99506.39
2022-08-19T16:18:47.661Z,99504.00
2022-08-19T16:22:55.572Z,99500.34
2022-08-19T16:27:05.287Z,99504.61
2022-08-19T16:31:15.023Z,99506.67
2022-08-19T16:35:23.048Z,99506.59
2022-08-19T16:39:30.676Z,99503.88
2022-08-19T16:43:39.398Z,99515.85
2022-08-19T16:47:47.294Z,99522.70
2022-08-19T16:51:55.375Z,99531.96
2022-08-19T16:56:02.657Z,99538.88
2022-08-19T17:00:14.060Z,99540.38
2022-08-19T17:04:22.112Z,99540.28
2022-08-19T17:08:30.250Z,99541.10
2022-08-19T17:12:38.694Z,99544.00
2022-08-19T17:16:46.107Z,99547.99
2022-08-19T17:20:56.055Z,99556.14
2022-08-19T17:25:05.899Z,99560.06
2022-08-19T17:29:13.213Z,99560.65
2022-08-19T17:33:21.664Z,99560.95
2022-08-19T17:37:31.407Z,99575.34
2022-08-19T17:41:40.562Z,99589.41
2022-08-19T17:45:49.136Z,99599.20
2022-08-19T17:49:57.345Z,99605.42
2022-08-19T17:54:06.750Z,99603.61
2022-08-19T17:58:14.502Z,99597.13
2022-08-19T18:02:24.277Z,99607.96
2022-08-19T18:06:31.914Z,99611.85
2022-08-19T18:10:40.345Z,99618.38
2022-08-19T18:14:48.307Z,99618.34
2022-08-19T18:18:56.703Z,99619.42
2022-08-19T18:23:45.027Z,99621.81
2022-08-19T18:27:34.358Z,99627.32
2022-08-19T18:31:43.782Z,99619.19
2022-08-19T18:35:53.496Z,99616.65
2022-08-19T18:40:18.918Z,99609.73
2022-08-19T18:44:43.862Z,99614.18
2022-08-19T18:49:07.531Z,99615.54
2022-08-19T18:53:16.747Z,99635.66
2022-08-19T18:57:25.103Z,99662.15
2022-08-19T19:01:36.841Z,99674.35
2022-08-19T19:05:44.986Z,99676.13
2022-08-19T19:09:52.971Z,99691.44
2022-08-19T19:14:02.635Z,99703.38
2022-08-19T19:18:10.658Z,99705.09
2022-08-19T19:22:22.593Z,99704.91
2022-08-19T19:26:30.471Z,99699.23
2022-08-19T19:30:38.193Z,99687.47
2022-08-19T19:34:46.061Z,99680.29
2022-08-19T19:38:54.333Z,99690.49
2022-08-19T19:43:04.870Z,99702.21
2022-08-19T19:47:12.958Z,99711.59
2022-08-19T19:51:20.966Z,99727.54
2022-08-19T19:55:30.666Z,99723.20
2022-08-19T19:59:38.444Z,99720.89
2022-08-19T20:03:53.342Z,99719.02
2022-08-19T20:08:18.515Z,99732.20
2022-08-19T20:12:26.894Z,99739.36
2022-08-19T20:16:35.308Z,99740.77
2022-08-19T20:20:43.521Z,99735.42
2022-08-19T20:24:53.721Z,99734.51
2022-08-19T20:29:13.661Z,99733.02
2022-08-19T20:33:31.596Z,99728.23
2022-08-19T20:37:41.726Z,99725.77
2022-08-19T20:41:49.655Z,99714.81
2022-08-19T20:45:57.521Z,99706.33
2022-08-19T20:50:05.427Z,99714.65
2022-08-19T20:54:13.002Z,99719.30
2022-08-19T20:58:22.912Z,99739.15
2022-08-19T21:02:30.379Z,99748.37
2022-08-19T21:06:38.777Z,99761.44
2022-08-19T21:10:53.640Z,99754.76
2022-08-19T21:15:01.363Z,99740.27
2022-08-19T21:19:09.486Z,99726.73
2022-08-19T21:23:20.602Z,99716.05
2022-08-19T21:27:28.297Z,99701.61
2022-08-19T21:31:36.156Z,99707.30
2022-08-19T21:35:44.301Z,99702.41
2022-08-19T21:39:51.811Z,99698.84
2022-08-19T21:44:00.230Z,99708.93
2022-08-19T21:48:08.700Z,99713.77
2022-08-19T21:52:19.243Z,99707.23
2022-08-19T21:56:27.012Z,99702.20
2022-08-19T22:00:36.495Z,99695.92
2022-08-19T22:04:44.645Z,99690.00
2022-08-19T22:08:53.788Z,99676.82
2022-08-19T22:13:04.028Z,99676.17
2022-08-19T22:17:12.252Z,99676.53
2022-08-19T22:21:40.587Z,99676.46
2022-08-19T22:25:49.254Z,99663.84
2022-08-19T22:29:56.891Z,99655.86
2022-08-19T22:34:04.396Z,99657.14
2022-08-19T22:38:13.185Z,99656.27
2022-08-19T22:42:23.151Z,99650.97
2022-08-19T22:46:34.418Z,99665.42
2022-08-19T22:50:43.697Z,99669.95
2022-08-19T22:54:53.093Z,99672.48
2022-08-19T22:59:00.767Z,99670.63
2022-08-19T23:03:08.597Z,99675.30
2022-08-19T23:07:16.418Z,99670.51
2022-08-19T23:11:24.458Z,99675.77
2022-08-19T23:15:33.232Z,99683.02
2022-08-19T23:19:40.949Z,99679.46
2022-08-19T23:23:48.422Z,99678.55
2022-08-19T23:28:13.785Z,99669.78
2022-08-19T23:32:22.097Z,99674.57
2022-08-19T23:36:29.581Z,99679.14
2022-08-19T23:40:38.632Z,99675.52
2022-08-19T23:44:51.940Z,99671.98
2022-08-19T23:49:01.301Z,99676.40
2022-08-19T23:53:09.504Z,99687.12
2022-08-19T23:57:20.961Z,99692.69
